This is the latest recevied weather packets stored in our database for station/object K3JAR-3. If no packets are shown the sender has not sent any weather packets the latest 10 day(s).
| Time | Temp. | Humidity | Pressure | Rain* | Wind** | Luminosity | Snow |
|---|---|---|---|---|---|---|---|
| 1777688421 | 14.44° C | 73% | 1020.3 hPa | 0 mm | - | - | - |
| 1777683041 | 15° C | 73% | 1018.4 hPa | 0 mm | - | - | - |
| 1777682424 | 15.56° C | 72% | 1018.3 hPa | 0 mm | - | - | - |
| 1777680022 | 16.11° C | 68% | 1017.9 hPa | 0 mm | - | - | - |
| 1777673429 | 17.22° C | 61% | 1017.1 hPa | 0 mm | - | - | - |
| 1777668625 | 17.78° C | 53% | 1017.3 hPa | 0 mm | - | - | - |
| 1777665625 | 16.67° C | 62% | 1018.5 hPa | 0 mm | - | - | - |
| 1777664455 | 16.67° C | 61% | 1017.5 hPa | 0 mm | - | - | - |
| 1777658423 | 17.22° C | 57% | 1018.4 hPa | 0 mm | - | - | - |
| 1777657823 | 16.67° C | 59% | 1018.4 hPa | 0 mm | - | - | - |
| 1777657226 | 16.11° C | 59% | 1018.5 hPa | 0 mm | - | - | - |
| 1777653018 | 15° C | 69% | 1019 hPa | 0 mm | - | - | - |
| 1777651230 | 15° C | 77% | 1018.9 hPa | 0 mm | - | - | - |
| 1777648833 | 14.44° C | 81% | 1019.1 hPa | 0 mm | - | - | - |
| 1777647618 | 14.44° C | 82% | 1018.2 hPa | 0 mm | - | - | - |
| 1777647027 | 14.44° C | 84% | 1018.6 hPa | 0 mm | - | - | - |
| 1777646426 | 14.44° C | 86% | 1018.9 hPa | 0 mm | - | - | - |
| 1777643416 | 13.33° C | 92% | 1018.5 hPa | 0 mm | - | - | - |
| 1777642832 | 13.89° C | 91% | 1018.2 hPa | 0 mm | - | - | - |
| 1777642218 | 13.89° C | 90% | 1018.3 hPa | 0 mm | - | - | - |
| 1777640430 | 13.89° C | 91% | 1019 hPa | 0 mm | - | - | - |
| 1777635626 | 13.89° C | 90% | 1017.1 hPa | 0 mm | - | - | - |
| 1777630225 | 13.89° C | 88% | 1017.6 hPa | 0 mm | - | - | - |
| 1777624825 | 14.44° C | 85% | 1016.6 hPa | 0 mm | - | - | - |
| 1777622422 | 15° C | 82% | 1017.1 hPa | 0 mm | - | - | - |
* Rain latest hour (hover to see other rain measurements)
** Current wind speed in m/s (hover to see current wind gust speed)